createdAt,value
2022-11-17T00:04:08.312Z,2.67
2022-11-17T00:09:18.361Z,2.64
2022-11-17T00:14:37.166Z,2.64
2022-11-17T00:20:01.024Z,2.61
2022-11-17T00:25:10.226Z,2.60
2022-11-17T00:30:30.708Z,2.59
2022-11-17T00:35:36.984Z,2.59
2022-11-17T00:40:44.719Z,2.52
2022-11-17T00:45:51.016Z,2.57
2022-11-17T00:50:57.292Z,2.66
2022-11-17T00:56:05.791Z,2.66
2022-11-17T01:01:12.639Z,2.62
2022-11-17T01:06:21.995Z,2.56
2022-11-17T01:11:31.656Z,2.51
2022-11-17T01:16:38.572Z,2.58
2022-11-17T01:21:45.350Z,2.58
2022-11-17T01:26:53.531Z,2.52
2022-11-17T01:32:00.522Z,2.55
2022-11-17T01:37:22.113Z,2.47
2022-11-17T01:42:29.914Z,2.41
2022-11-17T01:47:44.889Z,2.31
2022-11-17T01:52:54.114Z,2.34
2022-11-17T01:58:07.334Z,2.31
2022-11-17T02:03:14.341Z,2.25
2022-11-17T02:08:23.307Z,2.27
2022-11-17T02:13:31.754Z,2.31
2022-11-17T02:18:58.220Z,2.32
2022-11-17T02:24:55.103Z,2.29
2022-11-17T02:30:07.894Z,2.24
2022-11-17T02:35:22.549Z,2.29
2022-11-17T02:40:35.731Z,2.23
2022-11-17T02:45:52.726Z,2.13
2022-11-17T02:51:01.160Z,2.21
2022-11-17T02:56:09.211Z,2.09
2022-11-17T03:01:55.597Z,2.15
2022-11-17T03:07:20.116Z,2.09
2022-11-17T03:12:33.651Z,2.13
2022-11-17T03:17:49.714Z,2.09
2022-11-17T03:23:04.445Z,2.01
2022-11-17T03:28:13.295Z,2.04
2022-11-17T03:33:24.467Z,2.00
2022-11-17T03:38:35.669Z,1.95
2022-11-17T03:43:44.835Z,1.84
2022-11-17T03:48:55.308Z,1.85
2022-11-17T03:54:02.047Z,1.77
2022-11-17T03:59:17.049Z,1.81
2022-11-17T04:04:46.122Z,1.76
2022-11-17T04:09:52.233Z,1.64
2022-11-17T04:15:16.099Z,1.63
2022-11-17T04:20:24.325Z,1.49
2022-11-17T04:25:44.172Z,1.49
2022-11-17T04:30:50.533Z,1.51
2022-11-17T04:35:58.679Z,1.52
2022-11-17T04:41:25.070Z,1.55
2022-11-17T04:46:33.841Z,1.57
2022-11-17T04:51:43.831Z,1.49
2022-11-17T04:56:50.283Z,1.51
2022-11-17T05:01:58.801Z,1.50
2022-11-17T05:07:11.178Z,1.42
2022-11-17T05:12:35.508Z,1.39
2022-11-17T05:17:41.823Z,1.33
2022-11-17T05:23:21.901Z,1.42
2022-11-17T05:28:28.864Z,1.42
2022-11-17T05:33:37.903Z,1.33
2022-11-17T05:38:46.032Z,1.25
2022-11-17T05:43:52.600Z,1.19
2022-11-17T05:48:59.228Z,1.18
2022-11-17T05:54:07.241Z,1.16
2022-11-17T05:59:27.541Z,1.14
2022-11-17T06:04:36.228Z,1.17
2022-11-17T06:09:44.860Z,1.16
2022-11-17T06:14:51.438Z,1.12
2022-11-17T06:20:03.206Z,1.13
2022-11-17T06:25:12.634Z,1.06
2022-11-17T06:30:19.683Z,1.12
2022-11-17T06:35:26.969Z,1.07
2022-11-17T06:40:34.930Z,1.03
2022-11-17T06:45:45.190Z,1.13
2022-11-17T06:50:51.485Z,1.12
2022-11-17T06:56:04.245Z,1.09
2022-11-17T07:01:13.774Z,1.15
2022-11-17T07:06:20.492Z,1.01
2022-11-17T07:11:28.322Z,1.02
2022-11-17T07:16:34.534Z,1.13
2022-11-17T07:21:40.836Z,1.08
2022-11-17T07:26:48.678Z,1.10
2022-11-17T07:31:55.172Z,1.03
2022-11-17T07:37:01.692Z,1.04
2022-11-17T07:42:09.310Z,1.03
2022-11-17T07:47:15.583Z,1.01
2022-11-17T07:52:21.724Z,0.95
2022-11-17T07:57:31.543Z,0.97
2022-11-17T08:02:37.647Z,0.95
2022-11-17T08:07:43.937Z,0.99
2022-11-17T08:12:53.652Z,1.03
2022-11-17T08:18:02.110Z,0.93
2022-11-17T08:23:08.542Z,0.88
2022-11-17T08:28:16.435Z,0.99
2022-11-17T08:33:22.966Z,0.91
2022-11-17T08:38:29.986Z,0.93
2022-11-17T08:43:38.169Z,0.82
2022-11-17T08:48:44.440Z,0.90
2022-11-17T08:53:50.709Z,0.85
2022-11-17T08:58:58.770Z,0.91
2022-11-17T09:04:06.086Z,0.75
2022-11-17T09:09:12.499Z,0.80
2022-11-17T09:14:20.549Z,0.85
2022-11-17T09:19:27.247Z,0.85
2022-11-17T09:24:33.660Z,0.84
2022-11-17T09:29:41.616Z,0.84
2022-11-17T09:34:48.266Z,0.90
2022-11-17T09:39:54.623Z,0.92
2022-11-17T09:45:10.415Z,0.91
2022-11-17T09:50:25.512Z,0.92
2022-11-17T09:55:37.809Z,0.94
2022-11-17T10:00:50.669Z,0.94
2022-11-17T10:05:57.842Z,0.86
2022-11-17T10:11:24.300Z,0.83
2022-11-17T10:16:32.643Z,0.87
2022-11-17T10:21:39.705Z,0.82
2022-11-17T10:26:51.110Z,0.94
2022-11-17T10:32:00.163Z,0.93
2022-11-17T10:37:25.457Z,0.87
2022-11-17T10:42:31.719Z,0.79
2022-11-17T10:47:42.164Z,0.87
2022-11-17T10:52:49.581Z,0.82
2022-11-17T10:58:01.649Z,0.85
2022-11-17T11:03:20.155Z,0.83
2022-11-17T11:08:55.807Z,0.85
2022-11-17T11:14:08.665Z,0.86
2022-11-17T11:19:19.748Z,0.96
2022-11-17T11:24:36.473Z,0.87
2022-11-17T11:29:54.137Z,0.94
2022-11-17T11:35:41.224Z,0.89
2022-11-17T11:41:07.008Z,0.84
2022-11-17T11:46:20.975Z,0.79
2022-11-17T11:51:39.555Z,0.79
2022-11-17T11:56:49.692Z,0.81
2022-11-17T12:02:09.243Z,0.83
2022-11-17T12:07:25.872Z,0.97
2022-11-17T12:12:36.987Z,0.96
2022-11-17T12:18:01.451Z,1.17
2022-11-17T12:23:21.941Z,1.01
2022-11-17T12:28:37.048Z,1.00
2022-11-17T12:34:32.193Z,1.17
2022-11-17T12:40:08.222Z,1.17
2022-11-17T12:45:15.204Z,1.17
2022-11-17T12:50:47.342Z,1.15
2022-11-17T12:56:35.301Z,1.15
2022-11-17T13:01:52.382Z,1.24
2022-11-17T13:07:04.104Z,1.31
2022-11-17T13:12:13.306Z,1.30
2022-11-17T13:17:21.873Z,1.36
2022-11-17T13:22:28.246Z,1.41
2022-11-17T13:27:36.619Z,1.44
2022-11-17T13:32:43.761Z,1.43
2022-11-17T13:38:08.118Z,1.40
2022-11-17T13:43:20.830Z,1.29
2022-11-17T13:48:34.803Z,1.22
2022-11-17T13:53:45.458Z,1.19
2022-11-17T13:58:54.360Z,1.16
2022-11-17T14:04:22.812Z,1.09
2022-11-17T14:09:31.930Z,1.03
2022-11-17T14:14:45.336Z,0.95
2022-11-17T14:19:51.505Z,0.82
2022-11-17T14:24:58.051Z,0.75
2022-11-17T14:30:07.080Z,0.72
2022-11-17T14:40:27.423Z,0.45
2022-11-17T14:45:36.119Z,0.34
2022-11-17T14:50:42.574Z,0.12
2022-11-17T14:55:48.700Z,0.20
2022-11-17T15:00:56.213Z,0.14
2022-11-17T15:06:05.432Z,0.08
2022-11-17T15:11:18.173Z,-0.11
2022-11-17T15:16:25.886Z,-0.03
2022-11-17T15:21:31.976Z,-0.15
2022-11-17T15:26:38.551Z,-0.26
2022-11-17T15:31:46.595Z,-0.28
2022-11-17T15:36:52.764Z,-0.35
2022-11-17T15:41:59.183Z,-0.64
2022-11-17T15:47:07.612Z,-0.66
2022-11-17T15:52:13.813Z,-0.71
2022-11-17T15:57:20.185Z,-0.63
2022-11-17T16:02:27.974Z,-0.57
2022-11-17T16:07:34.335Z,-0.78
2022-11-17T16:12:42.133Z,-1.12
2022-11-17T16:17:49.920Z,-0.97
2022-11-17T16:22:56.162Z,-1.04
2022-11-17T16:28:02.644Z,-1.07
2022-11-17T16:33:16.732Z,-1.05
2022-11-17T16:38:23.515Z,-1.06
2022-11-17T16:43:30.214Z,-0.92
2022-11-17T16:48:38.132Z,-1.02
2022-11-17T16:53:44.314Z,-1.10
2022-11-17T16:58:51.772Z,-0.99
2022-11-17T17:04:01.397Z,-0.99
2022-11-17T17:09:10.603Z,-0.85
2022-11-17T17:14:17.609Z,-0.80
2022-11-17T17:19:25.364Z,-1.01
2022-11-17T17:24:32.116Z,-1.05
2022-11-17T17:29:38.895Z,-1.07
2022-11-17T17:34:48.429Z,-0.94
2022-11-17T17:39:55.893Z,-0.86
2022-11-17T17:45:02.862Z,-0.77
2022-11-17T17:50:12.169Z,-0.80
2022-11-17T17:55:19.291Z,-0.70
2022-11-17T18:00:26.830Z,-0.57
2022-11-17T18:05:35.353Z,-0.68
2022-11-17T18:10:44.180Z,-0.68
2022-11-17T18:15:52.881Z,-0.57
2022-11-17T18:21:07.078Z,-0.64
2022-11-17T18:26:17.459Z,-0.59
2022-11-17T18:31:28.207Z,-0.61
2022-11-17T18:36:37.061Z,-0.60
2022-11-17T18:41:45.404Z,-0.60
2022-11-17T18:46:54.265Z,-0.58
2022-11-17T18:52:06.040Z,-0.53
2022-11-17T18:57:13.843Z,-0.54
2022-11-17T19:02:21.669Z,-0.55
2022-11-17T19:07:30.622Z,-0.62
2022-11-17T19:12:39.427Z,-0.61
2022-11-17T19:17:46.779Z,-0.62
2022-11-17T19:22:56.363Z,-0.61
2022-11-17T19:28:04.102Z,-0.54
2022-11-17T19:33:12.585Z,-0.58
2022-11-17T19:38:21.413Z,-0.66
2022-11-17T19:43:30.870Z,-0.73
2022-11-17T19:48:39.044Z,-0.88
2022-11-17T19:53:48.346Z,-0.83
2022-11-17T19:58:58.924Z,-0.97
2022-11-17T20:04:07.299Z,-1.16
2022-11-17T20:09:17.366Z,-1.12
2022-11-17T20:14:24.164Z,-1.19
2022-11-17T20:19:31.616Z,-1.21
2022-11-17T20:24:43.872Z,-1.17
2022-11-17T20:29:51.627Z,-1.23
2022-11-17T20:34:59.105Z,-1.19
2022-11-17T20:40:09.153Z,-1.22
2022-11-17T20:45:17.964Z,-1.35
2022-11-17T20:50:32.967Z,-1.28
2022-11-17T20:55:42.909Z,-1.24
2022-11-17T21:00:50.307Z,-1.44
2022-11-17T21:05:59.523Z,-1.18
2022-11-17T21:11:12.041Z,-1.39
2022-11-17T21:16:18.880Z,-1.36
2022-11-17T21:21:25.723Z,-1.56
2022-11-17T21:26:34.266Z,-1.48
2022-11-17T21:31:40.979Z,-1.57
2022-11-17T21:36:47.583Z,-1.69
2022-11-17T21:41:57.289Z,-1.68
2022-11-17T21:47:03.570Z,-1.65
2022-11-17T21:52:09.859Z,-1.96
2022-11-17T21:57:17.679Z,-1.94
2022-11-17T22:02:23.944Z,-2.07
2022-11-17T22:07:30.091Z,-2.09
2022-11-17T22:12:37.981Z,-1.78
2022-11-17T22:17:44.312Z,-2.31
2022-11-17T22:22:54.416Z,-1.96
2022-11-17T22:28:02.424Z,-1.91
2022-11-17T22:33:08.925Z,-2.01
2022-11-17T22:38:16.520Z,-2.52
2022-11-17T22:43:23.993Z,-2.30
2022-11-17T22:48:30.211Z,-2.48
2022-11-17T22:53:36.961Z,-2.79
2022-11-17T22:58:49.740Z,-2.61
2022-11-17T23:03:56.211Z,-2.82
2022-11-17T23:09:02.440Z,-2.75
2022-11-17T23:14:13.482Z,-2.69
2022-11-17T23:19:20.266Z,-2.63
2022-11-17T23:24:26.698Z,-2.56
2022-11-17T23:29:34.507Z,-2.45
2022-11-17T23:34:41.075Z,-2.34
2022-11-17T23:39:47.310Z,-2.37
2022-11-17T23:44:54.885Z,-2.27
2022-11-17T23:50:01.193Z,-2.21
2022-11-17T23:55:10.143Z,-2.14
